Time;durP1;ratioP1;P1;durP2;ratioP2;P2;SDS_P1;SDS_P2;PMS_P1;PMS_P2;Temp;Humidity;BMP_temperature;BMP_pressure;BME280_temperature;BME280_humidity;BME280_pressure;Samples;Min_cycle;Max_cycle;Signal;HPM_P1;HPM_P2
2019/10/29 00:02:20;;;;;;;7.8;5;;;;;;;;;;;;;
2019/10/29 00:04:45;;;;;;;8.1;4.6;;;;;;;;;;;;;
2019/10/29 00:07:10;;;;;;;11;5.4;;;;;;;;;;;;;
2019/10/29 00:09:35;;;;;;;7.8;4.9;;;;;;;;;;;;;
2019/10/29 00:12:00;;;;;;;8.2;5.1;;;;;;;;;;;;;
2019/10/29 00:14:26;;;;;;;7;5;;;;;;;;;;;;;
2019/10/29 00:16:51;;;;;;;8.3;5.1;;;;;;;;;;;;;
2019/10/29 00:21:47;;;;;;;8.9;5;;;;;;;8.18;85.97852;961.6508;;;;
2019/10/29 00:24:12;;;;;;;8.8;5.1;;;;;;;7.93;86.00781;961.6503;;;;
2019/10/29 00:26:37;;;;;;;8.6;5.1;;;;;;;7.89;86.56348;961.6472;;;;
2019/10/29 00:29:02;;;;;;;8.7;5.2;;;;;;;7.75;86.7959;961.6314;;;;
2019/10/29 00:31:27;;;;;;;8.2;5.2;;;;;;;7.96;86.28809;961.6569;;;;
2019/10/29 00:33:56;;;;;;;9.8;5.4;;;;;;;7.75;86.41992;961.5593;;;;
2019/10/29 00:36:18;;;;;;;11.9;5.3;;;;;;;7.91;86.64551;961.5959;;;;
2019/10/29 00:38:43;;;;;;;10.9;5.1;;;;;;;7.73;86.58594;961.5925;;;;
2019/10/29 00:41:08;;;;;;;11.1;5.3;;;;;;;7.81;87.12891;961.6284;;;;
2019/10/29 00:43:33;;;;;;;10.8;5.1;;;;;;;7.88;86.33105;961.6485;;;;
2019/10/29 00:45:58;;;;;;;10.6;5.2;;;;;;;7.92;86.56738;961.6732;;;;
2019/10/29 00:48:23;;;;;;;9.6;5.6;;;;;;;7.98;86.47656;961.6573;;;;
2019/10/29 00:50:48;;;;;;;9.3;5.4;;;;;;;7.91;85.91309;961.6099;;;;
2019/10/29 00:53:13;;;;;;;8.6;4.9;;;;;;;7.89;85.58008;961.5872;;;;
2019/10/29 00:55:38;;;;;;;9.7;5;;;;;;;7.91;86.46191;961.5538;;;;
2019/10/29 00:58:04;;;;;;;9.5;5.1;;;;;;;7.82;85.4834;961.5289;;;;
2019/10/29 01:00:29;;;;;;;10.1;5.2;;;;;;;7.59;86.14746;961.5108;;;;
2019/10/29 01:02:54;;;;;;;8.2;4.9;;;;;;;7.51;86.46289;961.5236;;;;
2019/10/29 01:05:19;;;;;;;9.7;4.8;;;;;;;7.45;86.58691;961.4584;;;;
2019/10/29 01:07:44;;;;;;;9.2;5.2;;;;;;;7.31;87.97461;961.4203;;;;
2019/10/29 01:10:09;;;;;;;8.5;5.4;;;;;;;7.34;88.47363;961.4367;;;;
2019/10/29 01:12:34;;;;;;;10.1;5.7;;;;;;;7.4;89.37598;961.4841;;;;
2019/10/29 01:14:59;;;;;;;10.1;6.1;;;;;;;7.26;90.08984;961.4858;;;;
2019/10/29 01:17:24;;;;;;;7.8;5.4;;;;;;;7.38;90.94824;961.507;;;;
2019/10/29 01:19:49;;;;;;;7.7;5.4;;;;;;;7.43;90.63965;961.4364;;;;
2019/10/29 01:22:14;;;;;;;11.2;6;;;;;;;7.52;89.84766;961.4364;;;;
2019/10/29 01:24:39;;;;;;;11.1;5.9;;;;;;;7.58;90.86426;961.4083;;;;
2019/10/29 01:27:04;;;;;;;8.7;5.5;;;;;;;7.59;90.37695;961.4256;;;;
2019/10/29 01:29:29;;;;;;;9.5;5.8;;;;;;;7.54;91.0625;961.459;;;;
2019/10/29 01:31:55;;;;;;;12.1;6.2;;;;;;;7.62;91.83203;961.549;;;;
2019/10/29 01:34:20;;;;;;;9.9;5.6;;;;;;;7.56;90.38281;961.5584;;;;
2019/10/29 01:36:45;;;;;;;8.2;5.8;;;;;;;7.36;90.33887;961.5356;;;;
2019/10/29 01:39:10;;;;;;;8.1;5.9;;;;;;;7.28;90.80176;961.4598;;;;
2019/10/29 01:41:35;;;;;;;7.9;5.6;;;;;;;7.31;90.61328;961.4964;;;;
2019/10/29 01:44:00;;;;;;;9.5;5.8;;;;;;;7.35;89.76563;961.5196;;;;
2019/10/29 01:46:25;;;;;;;10.6;5.7;;;;;;;7.1;90.69336;961.4485;;;;
2019/10/29 01:48:50;;;;;;;11.2;5.8;;;;;;;7.12;91.06445;961.4506;;;;
2019/10/29 01:51:15;;;;;;;10.6;5.6;;;;;;;7.26;90.72754;961.4403;;;;
2019/10/29 01:53:41;;;;;;;8.7;6.1;;;;;;;7.05;91.88281;961.3657;;;;
2019/10/29 01:56:06;;;;;;;9.6;6.2;;;;;;;7.06;92.14941;961.4174;;;;
2019/10/29 01:58:31;;;;;;;11;6.4;;;;;;;7.03;92.72363;961.3555;;;;
2019/10/29 02:00:56;;;;;;;11.7;6.8;;;;;;;7.05;93.2959;961.3397;;;;
2019/10/29 02:03:21;;;;;;;11.8;7.2;;;;;;;7.12;95.75684;961.3616;;;;
2019/10/29 02:05:46;;;;;;;10.3;6.7;;;;;;;7.13;93.13281;961.2958;;;;
2019/10/29 02:13:02;;;;;;;10.3;6.4;;;;;;;7.15;92.75977;961.3094;;;;
2019/10/29 02:15:27;;;;;;;13.3;7.3;;;;;;;6.91;93.53125;961.2557;;;;
2019/10/29 02:17:52;;;;;;;12.5;7.4;;;;;;;7;94.81836;961.233;;;;
2019/10/29 02:20:17;;;;;;;13.3;7.7;;;;;;;7.07;96.21289;961.2029;;;;
2019/10/29 02:22:42;;;;;;;11.7;7.1;;;;;;;7.17;94.15918;961.1852;;;;
2019/10/29 02:25:07;;;;;;;12.1;7.3;;;;;;;7.04;93.70703;961.1986;;;;
2019/10/29 02:27:32;;;;;;;12.1;7.2;;;;;;;7.16;93.69824;961.1953;;;;
2019/10/29 02:29:58;;;;;;;12;7.2;;;;;;;7.4;93.87695;961.1314;;;;
2019/10/29 02:32:23;;;;;;;11.2;7.4;;;;;;;7.38;93.46191;961.1476;;;;
2019/10/29 02:34:48;;;;;;;11.3;7.2;;;;;;;7.38;92.13672;961.1616;;;;
2019/10/29 02:37:13;;;;;;;9.4;6.7;;;;;;;7.49;92.76563;961.1166;;;;
2019/10/29 02:39:39;;;;;;;9.7;7.3;;;;;;;7.32;92.60254;961.153;;;;
2019/10/29 02:42:04;;;;;;;12.6;7.3;;;;;;;7.28;93.69141;961.2092;;;;
2019/10/29 02:44:29;;;;;;;9.4;6.9;;;;;;;7.22;93.18848;961.2349;;;;
2019/10/29 02:46:54;;;;;;;11.5;7.1;;;;;;;7.32;93.87305;961.2106;;;;
2019/10/29 02:49:19;;;;;;;10.1;6.7;;;;;;;7.39;91.46582;961.2221;;;;
2019/10/29 02:51:44;;;;;;;10.6;6.8;;;;;;;7.37;92.42188;961.197;;;;
2019/10/29 02:54:10;;;;;;;10.7;7.5;;;;;;;7.11;94.3623;961.2024;;;;
2019/10/29 02:56:35;;;;;;;10.8;7.7;;;;;;;7;94.40527;961.1498;;;;
2019/10/29 02:59:00;;;;;;;12.7;7.3;;;;;;;7.11;93.6543;961.2195;;;;
2019/10/29 03:01:25;;;;;;;11.1;7;;;;;;;7.13;94.10352;961.1872;;;;
2019/10/29 03:03:50;;;;;;;9;6.8;;;;;;;7.28;93.61133;961.2198;;;;
2019/10/29 03:06:16;;;;;;;9.9;7.3;;;;;;;7.29;93.72949;961.2274;;;;
2019/10/29 03:08:41;;;;;;;10;7.6;;;;;;;7.17;93.94043;961.2539;;;;
2019/10/29 03:11:06;;;;;;;11;7.4;;;;;;;7.3;93.78906;961.3107;;;;
2019/10/29 03:13:32;;;;;;;12.1;7.3;;;;;;;7.35;92.91895;961.3176;;;;
2019/10/29 03:15:57;;;;;;;13.9;8.5;;;;;;;7.18;95.65723;961.2854;;;;
2019/10/29 03:18:22;;;;;;;15.1;9;;;;;;;7.03;96.84668;961.311;;;;
2019/10/29 03:20:47;;;;;;;10.4;8.1;;;;;;;7.21;95.22852;961.3099;;;;
2019/10/29 03:23:12;;;;;;;12.1;8.1;;;;;;;7.28;95.75879;961.3583;;;;
2019/10/29 03:25:38;;;;;;;11.3;8.2;;;;;;;7.22;95.08496;961.3798;;;;
2019/10/29 03:28:03;;;;;;;13.1;8.9;;;;;;;7.05;97.87402;961.4709;;;;
2019/10/29 03:30:29;;;;;;;11;8.2;;;;;;;7.11;97.39941;961.4309;;;;
2019/10/29 03:32:54;;;;;;;11.1;8.3;;;;;;;7.22;96.52344;961.4261;;;;
2019/10/29 03:35:19;;;;;;;11.3;8.7;;;;;;;7.05;97.82129;961.3439;;;;
2019/10/29 03:37:44;;;;;;;11.2;9.3;;;;;;;6.97;98.54199;961.4109;;;;
2019/10/29 03:40:09;;;;;;;12.5;9.4;;;;;;;6.79;98.86621;961.3858;;;;
2019/10/29 03:42:35;;;;;;;13.7;10.1;;;;;;;6.88;100;961.3748;;;;
2019/10/29 03:45:00;;;;;;;15.5;10;;;;;;;6.92;99.94531;961.4169;;;;
2019/10/29 03:47:32;;;;;;;13.8;10.8;;;;;;;7.03;100;961.4017;;;;
2019/10/29 03:50:02;;;;;;;12.4;9.9;;;;;;;6.98;98.66016;961.3286;;;;
2019/10/29 03:52:27;;;;;;;13.4;10.1;;;;;;;6.96;100;961.378;;;;
2019/10/29 03:55:04;;;;;;;15.5;9.9;;;;;;;6.71;98.52832;961.3333;;;;
2019/10/29 03:57:33;;;;;;;17.2;10.2;;;;;;;6.6;99.51855;961.3455;;;;
2019/10/29 03:59:54;;;;;;;12.8;10.3;;;;;;;6.65;99.89551;961.3157;;;;
2019/10/29 04:02:27;;;;;;;15.4;10.8;;;;;;;6.55;100;961.2511;;;;
2019/10/29 04:04:52;;;;;;;16.4;10.9;;;;;;;6.43;100;961.2839;;;;
2019/10/29 04:07:17;;;;;;;15.8;10.7;;;;;;;6.46;100;961.2749;;;;
2019/10/29 04:09:42;;;;;;;14.8;11;;;;;;;6.41;100;961.2405;;;;
2019/10/29 04:12:07;;;;;;;15.4;11.9;;;;;;;6.47;100;961.2168;;;;
2019/10/29 04:14:33;;;;;;;15.7;12.5;;;;;;;6.64;100;961.2184;;;;
2019/10/29 04:17:05;;;;;;;18.4;12.3;;;;;;;6.58;100;961.2198;;;;
2019/10/29 04:19:23;;;;;;;17.2;12.4;;;;;;;6.67;100;961.1939;;;;
2019/10/29 04:21:48;;;;;;;15.6;12.5;;;;;;;6.81;100;961.1692;;;;
2019/10/29 04:24:13;;;;;;;18.3;13.9;;;;;;;6.68;100;961.1896;;;;
2019/10/29 04:26:38;;;;;;;20;14.2;;;;;;;6.69;100;961.1923;;;;
2019/10/29 04:29:03;;;;;;;17.8;13.5;;;;;;;6.75;100;961.2279;;;;
2019/10/29 04:31:28;;;;;;;23;14.3;;;;;;;6.7;100;961.2347;;;;
2019/10/29 04:33:54;;;;;;;20.2;14.4;;;;;;;6.57;100;961.2187;;;;
2019/10/29 04:36:19;;;;;;;19.8;14.1;;;;;;;6.72;100;961.2122;;;;
2019/10/29 04:38:44;;;;;;;19.9;14.3;;;;;;;6.71;100;961.2328;;;;
2019/10/29 04:41:09;;;;;;;20.5;15;;;;;;;6.63;100;961.2364;;;;
2019/10/29 04:43:34;;;;;;;19.6;15.3;;;;;;;6.83;100;961.2381;;;;
2019/10/29 04:45:59;;;;;;;18;14.6;;;;;;;6.98;100;961.2783;;;;
2019/10/29 04:48:24;;;;;;;17.6;13.7;;;;;;;6.93;100;961.2999;;;;
2019/10/29 04:50:49;;;;;;;18.3;15.5;;;;;;;6.85;100;961.3524;;;;
2019/10/29 04:53:15;;;;;;;17;14.1;;;;;;;6.94;100;961.3887;;;;
2019/10/29 04:55:40;;;;;;;22.8;16.1;;;;;;;6.82;100;961.3619;;;;
2019/10/29 04:58:05;;;;;;;21.9;16.3;;;;;;;6.84;100;961.3372;;;;
2019/10/29 05:00:30;;;;;;;23.1;16;;;;;;;6.96;100;961.3116;;;;
2019/10/29 05:02:55;;;;;;;25.7;18.5;;;;;;;6.86;100;961.3145;;;;
2019/10/29 05:05:21;;;;;;;19.6;15.8;;;;;;;6.74;100;961.2664;;;;
2019/10/29 05:08:07;;;;;;;23.7;16.3;;;;;;;6.74;100;961.3167;;;;
2019/10/29 05:10:10;;;;;;;24.2;16.9;;;;;;;6.4;100;961.3167;;;;
2019/10/29 05:12:35;;;;;;;25.9;17.5;;;;;;;6.37;100;961.3115;;;;
2019/10/29 05:15:00;;;;;;;26.9;18.6;;;;;;;6.39;100;961.3287;;;;
2019/10/29 05:17:25;;;;;;;28;20.1;;;;;;;6.28;100;961.4005;;;;
2019/10/29 05:19:51;;;;;;;26.2;18.6;;;;;;;6.43;100;961.3644;;;;
2019/10/29 05:22:16;;;;;;;29.1;19.5;;;;;;;6.53;100;961.3397;;;;
2019/10/29 05:24:41;;;;;;;30.3;19.3;;;;;;;6.52;100;961.3719;;;;
2019/10/29 05:27:06;;;;;;;26.5;19.5;;;;;;;6.65;100;961.3911;;;;
2019/10/29 05:29:31;;;;;;;30.4;20.3;;;;;;;6.84;100;961.3914;;;;
2019/10/29 05:31:56;;;;;;;33.6;20.5;;;;;;;6.79;100;961.4016;;;;
2019/10/29 05:34:22;;;;;;;32.9;20.8;;;;;;;6.79;100;961.4522;;;;
2019/10/29 05:36:47;;;;;;;34;21.6;;;;;;;6.99;100;961.442;;;;
2019/10/29 05:39:12;;;;;;;32.3;21.8;;;;;;;6.95;100;961.4626;;;;
2019/10/29 05:41:37;;;;;;;34.8;23.2;;;;;;;7.01;100;961.4551;;;;
2019/10/29 05:44:02;;;;;;;31.1;23.2;;;;;;;7.03;100;961.5041;;;;
2019/10/29 05:46:27;;;;;;;31.7;23;;;;;;;7.05;100;961.492;;;;
2019/10/29 05:48:53;;;;;;;32.4;23.3;;;;;;;7.07;100;961.5252;;;;
2019/10/29 05:51:18;;;;;;;33.6;22.3;;;;;;;7.02;100;961.5217;;;;
2019/10/29 05:53:43;;;;;;;31.4;23.1;;;;;;;7.09;100;961.5662;;;;
2019/10/29 05:56:08;;;;;;;31.8;23;;;;;;;7.08;100;961.5952;;;;
2019/10/29 05:58:33;;;;;;;32.8;21.5;;;;;;;7.03;100;961.6525;;;;
2019/10/29 06:00:58;;;;;;;33.3;23.2;;;;;;;7.1;100;961.6705;;;;
2019/10/29 06:03:24;;;;;;;32.8;23.4;;;;;;;7.03;100;961.7282;;;;
2019/10/29 06:05:48;;;;;;;32.5;23.8;;;;;;;7;100;961.7364;;;;
2019/10/29 06:08:14;;;;;;;32;24.2;;;;;;;7.03;100;961.7314;;;;
2019/10/29 06:10:41;;;;;;;34.7;25.1;;;;;;;6.88;100;961.7827;;;;
2019/10/29 06:13:04;;;;;;;37.1;27;;;;;;;6.61;100;961.7573;;;;
2019/10/29 06:15:30;;;;;;;40;28.1;;;;;;;6.48;100;961.7723;;;;
2019/10/29 06:17:55;;;;;;;37.8;28.1;;;;;;;6.62;100;961.8467;;;;
2019/10/29 06:20:21;;;;;;;46.1;30.3;;;;;;;6.71;100;961.8718;;;;
2019/10/29 06:22:46;;;;;;;43.4;30.4;;;;;;;6.59;100;961.9622;;;;
2019/10/29 06:25:12;;;;;;;41.9;32.3;;;;;;;6.6;100;961.9331;;;;
2019/10/29 06:27:37;;;;;;;46;33.6;;;;;;;6.58;100;962.0408;;;;
2019/10/29 06:30:02;;;;;;;49.8;35.7;;;;;;;6.91;100;962.0974;;;;
2019/10/29 06:32:27;;;;;;;39.7;32;;;;;;;6.85;100;962.0903;;;;
2019/10/29 06:34:52;;;;;;;45.9;33.1;;;;;;;6.89;100;962.1078;;;;
2019/10/29 06:37:17;;;;;;;36.7;28.9;;;;;;;7.03;100;962.1046;;;;
2019/10/29 06:39:43;;;;;;;38.7;29.5;;;;;;;7.01;100;962.0837;;;;
2019/10/29 06:42:08;;;;;;;39.6;29;;;;;;;6.73;100;962.1197;;;;
2019/10/29 06:44:33;;;;;;;45.8;32.9;;;;;;;6.73;100;962.1371;;;;
2019/10/29 06:46:58;;;;;;;38.2;28.8;;;;;;;6.61;100;962.176;;;;
2019/10/29 06:49:23;;;;;;;39.9;30.3;;;;;;;6.58;100;962.248;;;;
2019/10/29 06:51:48;;;;;;;40.5;30.4;;;;;;;6.68;100;962.2441;;;;
2019/10/29 06:54:13;;;;;;;40.7;31.8;;;;;;;6.51;100;962.324;;;;
2019/10/29 06:56:38;;;;;;;40.5;31.4;;;;;;;6.57;100;962.3676;;;;
2019/10/29 06:59:03;;;;;;;36.8;30.8;;;;;;;6.54;100;962.428;;;;
2019/10/29 07:01:29;;;;;;;40.2;30.9;;;;;;;6.65;100;962.4266;;;;
2019/10/29 07:03:54;;;;;;;32.7;27;;;;;;;6.75;100;962.4824;;;;
2019/10/29 07:06:19;;;;;;;34.9;27.5;;;;;;;6.54;100;962.5333;;;;
2019/10/29 07:08:44;;;;;;;34.2;28.1;;;;;;;6.58;100;962.5703;;;;
2019/10/29 07:11:09;;;;;;;36.7;29.5;;;;;;;6.59;100;962.6121;;;;
2019/10/29 07:13:34;;;;;;;34.7;29.2;;;;;;;6.68;100;962.5945;;;;
2019/10/29 07:15:59;;;;;;;36.1;29.8;;;;;;;6.82;100;962.599;;;;
2019/10/29 07:18:24;;;;;;;34.9;29.6;;;;;;;6.7;100;962.6477;;;;
2019/10/29 07:20:49;;;;;;;34;30.3;;;;;;;6.75;100;962.6217;;;;
2019/10/29 07:23:14;;;;;;;34.5;29.7;;;;;;;6.87;100;962.6576;;;;
2019/10/29 07:25:39;;;;;;;33.2;28.9;;;;;;;6.89;100;962.6675;;;;
2019/10/29 07:28:05;;;;;;;31.7;28.2;;;;;;;6.88;100;962.5879;;;;
2019/10/29 07:30:30;;;;;;;31.5;28.1;;;;;;;6.87;100;962.6147;;;;
2019/10/29 07:32:55;;;;;;;31.8;28;;;;;;;6.98;100;962.6216;;;;
2019/10/29 07:35:20;;;;;;;31.1;27.7;;;;;;;7.09;100;962.6209;;;;
2019/10/29 07:37:45;;;;;;;30;26.9;;;;;;;7.14;100;962.6753;;;;
2019/10/29 07:40:10;;;;;;;29.1;26.1;;;;;;;7.24;100;962.69;;;;
2019/10/29 07:42:36;;;;;;;29.9;26.8;;;;;;;7.13;100;962.7372;;;;
2019/10/29 07:45:01;;;;;;;30.4;27.3;;;;;;;7.13;100;962.7128;;;;
2019/10/29 07:47:26;;;;;;;30.9;27.6;;;;;;;7.18;100;962.7659;;;;
2019/10/29 07:49:51;;;;;;;31.9;28.6;;;;;;;7.17;100;962.8125;;;;
2019/10/29 07:52:16;;;;;;;31.9;28.5;;;;;;;7.11;100;962.8173;;;;
2019/10/29 07:54:41;;;;;;;30.6;27.4;;;;;;;7.27;100;962.848;;;;
2019/10/29 07:57:06;;;;;;;31.6;28.2;;;;;;;7.23;100;962.8647;;;;
2019/10/29 07:59:32;;;;;;;32;28.6;;;;;;;7.09;100;962.8219;;;;
2019/10/29 08:01:57;;;;;;;34.6;30.9;;;;;;;7.1;100;962.8253;;;;
2019/10/29 08:04:22;;;;;;;34.7;31.1;;;;;;;7.24;100;962.8772;;;;
2019/10/29 08:06:47;;;;;;;35.4;31.6;;;;;;;7.34;100;962.878;;;;
2019/10/29 08:09:13;;;;;;;36;31.2;;;;;;;7.25;100;962.9202;;;;
2019/10/29 08:11:38;;;;;;;35.9;32;;;;;;;7.47;100;963.005;;;;
2019/10/29 08:14:03;;;;;;;34.6;30.3;;;;;;;7.26;100;963.0313;;;;
2019/10/29 08:16:29;;;;;;;36.5;32.5;;;;;;;7.2;100;963.0168;;;;
2019/10/29 08:18:54;;;;;;;37;33;;;;;;;7.11;100;963.0435;;;;
2019/10/29 08:21:19;;;;;;;34.9;31.2;;;;;;;7.16;100;963.0284;;;;
2019/10/29 08:23:44;;;;;;;34.1;30.7;;;;;;;7.3;100;963.0372;;;;
2019/10/29 08:26:09;;;;;;;35.1;31.4;;;;;;;7.12;100;963.0471;;;;
2019/10/29 08:28:34;;;;;;;37.3;33.3;;;;;;;7.11;100;963.0833;;;;
2019/10/29 08:30:59;;;;;;;37.9;33.9;;;;;;;7.22;100;963.1233;;;;
2019/10/29 08:33:24;;;;;;;34.9;31.4;;;;;;;7.22;100;963.1572;;;;
2019/10/29 08:35:49;;;;;;;35.3;31.7;;;;;;;7.06;100;963.163;;;;
2019/10/29 08:38:14;;;;;;;36;32.3;;;;;;;7.17;100;963.1155;;;;
2019/10/29 08:40:39;;;;;;;38.4;34.3;;;;;;;6.97;100;963.1323;;;;
2019/10/29 08:43:04;;;;;;;37.3;33.6;;;;;;;7.12;100;963.1771;;;;
2019/10/29 08:45:30;;;;;;;36.3;32.5;;;;;;;7.16;100;963.2034;;;;
2019/10/29 08:47:55;;;;;;;35;31.5;;;;;;;7.24;100;963.2392;;;;
2019/10/29 08:50:20;;;;;;;35.5;31.8;;;;;;;6.96;100;963.2216;;;;
2019/10/29 08:52:45;;;;;;;36.9;33;;;;;;;6.93;100;963.2394;;;;
2019/10/29 08:55:10;;;;;;;36.4;32.7;;;;;;;6.97;100;963.2419;;;;
2019/10/29 08:57:35;;;;;;;37.8;34;;;;;;;7.04;100;963.318;;;;
2019/10/29 09:00:00;;;;;;;38.3;34.5;;;;;;;7.03;100;963.3855;;;;
2019/10/29 09:02:40;;;;;;;39;34.8;;;;;;;6.97;100;963.3965;;;;
2019/10/29 09:05:05;;;;;;;37.9;33.9;;;;;;;7.07;100;963.3744;;;;
2019/10/29 09:07:38;;;;;;;39;34.9;;;;;;;7.03;100;963.4322;;;;
2019/10/29 09:09:55;;;;;;;39.2;35.2;;;;;;;7.05;100;963.4731;;;;
2019/10/29 09:12:20;;;;;;;37;33.3;;;;;;;6.98;100;963.4592;;;;
2019/10/29 09:14:46;;;;;;;35.3;31.7;;;;;;;7.02;100;963.5069;;;;
2019/10/29 09:17:11;;;;;;;37;33.4;;;;;;;6.96;100;963.4705;;;;
2019/10/29 09:19:36;;;;;;;37.4;33.6;;;;;;;6.98;100;963.4461;;;;
2019/10/29 09:22:01;;;;;;;36.4;32.8;;;;;;;7.12;100;963.4583;;;;
2019/10/29 09:24:26;;;;;;;35.4;31.9;;;;;;;7.15;100;963.4992;;;;
2019/10/29 09:26:51;;;;;;;34.6;31.2;;;;;;;7.2;100;963.4506;;;;
2019/10/29 09:29:16;;;;;;;33.2;30;;;;;;;7.3;100;963.4871;;;;
2019/10/29 09:31:41;;;;;;;31.6;28.2;;;;;;;7.33;100;963.5056;;;;
2019/10/29 09:34:07;;;;;;;31.2;28.1;;;;;;;7.21;100;963.5439;;;;
2019/10/29 09:36:32;;;;;;;33.7;30.3;;;;;;;7.36;100;963.5784;;;;
2019/10/29 09:38:57;;;;;;;30.5;27.5;;;;;;;7.34;100;963.571;;;;
2019/10/29 09:41:22;;;;;;;31.1;28.1;;;;;;;7.26;100;963.6044;;;;
2019/10/29 09:43:48;;;;;;;31.2;28;;;;;;;7.1;100;963.575;;;;
2019/10/29 09:46:13;;;;;;;31.1;28.2;;;;;;;7.25;100;963.6147;;;;
2019/10/29 09:48:38;;;;;;;33;29.7;;;;;;;7.3;100;963.6277;;;;
2019/10/29 09:51:03;;;;;;;31.2;28.3;;;;;;;7.42;100;963.5338;;;;
2019/10/29 09:53:28;;;;;;;31.9;28.6;;;;;;;7.54;100;963.5374;;;;
2019/10/29 09:55:54;;;;;;;31.3;28.3;;;;;;;7.59;100;963.5494;;;;
2019/10/29 09:58:19;;;;;;;30.1;27.2;;;;;;;7.5;100;963.5865;;;;
2019/10/29 10:00:44;;;;;;;30.5;27.5;;;;;;;7.54;100;963.6119;;;;
2019/10/29 10:03:09;;;;;;;29;26.1;;;;;;;7.55;100;963.6511;;;;
2019/10/29 10:05:35;;;;;;;28.8;25.9;;;;;;;7.6;100;963.6984;;;;
2019/10/29 10:08:00;;;;;;;29.6;26.6;;;;;;;7.58;100;963.7252;;;;
2019/10/29 10:10:25;;;;;;;27.3;24.7;;;;;;;7.57;100;963.7151;;;;
2019/10/29 10:12:51;;;;;;;29;26.3;;;;;;;7.61;100;963.7239;;;;
2019/10/29 10:15:16;;;;;;;28.2;25.3;;;;;;;7.58;100;963.7585;;;;
2019/10/29 10:17:41;;;;;;;28.4;25.7;;;;;;;7.62;100;963.7574;;;;
2019/10/29 10:20:06;;;;;;;28.8;25.9;;;;;;;7.59;100;963.7579;;;;
2019/10/29 10:22:31;;;;;;;26.9;24.3;;;;;;;7.62;100;963.8281;;;;
2019/10/29 10:24:56;;;;;;;28.7;25.9;;;;;;;7.78;100;963.8089;;;;
2019/10/29 10:27:22;;;;;;;27.9;25;;;;;;;7.78;100;963.8162;;;;
2019/10/29 10:29:47;;;;;;;26.2;23.6;;;;;;;7.73;100;963.8111;;;;
2019/10/29 10:32:12;;;;;;;26.9;24.4;;;;;;;7.69;100;963.8072;;;;
2019/10/29 10:34:38;;;;;;;28.6;25.5;;;;;;;7.52;100;963.8089;;;;
2019/10/29 10:37:03;;;;;;;26.1;23.5;;;;;;;7.65;100;963.8218;;;;
2019/10/29 10:39:28;;;;;;;26.5;23.9;;;;;;;7.64;100;963.8322;;;;
2019/10/29 10:41:53;;;;;;;26.6;24.1;;;;;;;7.84;100;963.8338;;;;
2019/10/29 10:44:18;;;;;;;24.1;21.7;;;;;;;7.78;100;963.787;;;;
2019/10/29 10:46:43;;;;;;;24.2;21.8;;;;;;;7.64;100;963.8264;;;;
2019/10/29 10:49:09;;;;;;;25.8;23.1;;;;;;;7.79;100;963.8748;;;;
2019/10/29 10:51:34;;;;;;;26.5;23.8;;;;;;;7.64;100;963.8839;;;;
2019/10/29 10:53:59;;;;;;;24.9;22.6;;;;;;;7.71;100;963.8857;;;;
2019/10/29 10:56:24;;;;;;;24.5;21.8;;;;;;;7.74;100;963.8479;;;;
2019/10/29 10:58:49;;;;;;;24.9;22.3;;;;;;;7.78;100;963.8397;;;;
2019/10/29 11:01:15;;;;;;;23.4;21.3;;;;;;;7.95;100;963.7986;;;;
2019/10/29 11:03:40;;;;;;;24.2;21.7;;;;;;;7.94;100;963.8162;;;;
2019/10/29 11:06:05;;;;;;;24.5;22.1;;;;;;;7.83;100;963.788;;;;
2019/10/29 11:08:30;;;;;;;23.6;21.5;;;;;;;8.04;100;963.8164;;;;
2019/10/29 11:10:55;;;;;;;22.7;20.5;;;;;;;7.88;100;963.8085;;;;
2019/10/29 11:13:20;;;;;;;25.2;22.8;;;;;;;7.9;100;963.8611;;;;
2019/10/29 11:15:45;;;;;;;23.9;21.5;;;;;;;7.95;100;963.8489;;;;
2019/10/29 11:18:11;;;;;;;24;21.5;;;;;;;7.96;100;963.8843;;;;
2019/10/29 11:20:36;;;;;;;23.1;20.8;;;;;;;8.05;100;963.8965;;;;
2019/10/29 11:23:01;;;;;;;23.5;21;;;;;;;8.11;100;963.8688;;;;
2019/10/29 11:25:26;;;;;;;22.5;20.4;;;;;;;8.27;100;963.9593;;;;
2019/10/29 11:27:51;;;;;;;23.6;21.4;;;;;;;8.07;100;963.9343;;;;
2019/10/29 11:30:18;;;;;;;23.5;21.2;;;;;;;8.14;100;963.9045;;;;
2019/10/29 11:32:43;;;;;;;22.2;20.2;;;;;;;8.01;100;963.9129;;;;
2019/10/29 11:35:08;;;;;;;23.3;20.9;;;;;;;7.91;100;963.8914;;;;
2019/10/29 11:37:33;;;;;;;24.3;21.8;;;;;;;7.92;100;963.9509;;;;
2019/10/29 11:39:58;;;;;;;25.7;22.2;;;;;;;7.85;100;963.9946;;;;
2019/10/29 11:42:23;;;;;;;26.2;22;;;;;;;7.81;100;964.0234;;;;
2019/10/29 11:44:48;;;;;;;33.6;25.9;;;;;;;7.84;100;963.9938;;;;
2019/10/29 11:47:13;;;;;;;23;20.7;;;;;;;7.98;100;963.9984;;;;
2019/10/29 11:49:38;;;;;;;22.2;20.1;;;;;;;8.04;100;963.9478;;;;
2019/10/29 11:52:04;;;;;;;21.3;19.4;;;;;;;8.08;100;963.9787;;;;
2019/10/29 11:54:29;;;;;;;21.9;19.7;;;;;;;8.09;98.8584;963.9962;;;;
2019/10/29 11:56:54;;;;;;;21.9;19.6;;;;;;;7.95;100;963.9576;;;;
2019/10/29 11:59:19;;;;;;;22.9;20.6;;;;;;;8.03;100;964.0378;;;;
2019/10/29 12:01:44;;;;;;;22;19.8;;;;;;;7.97;99.83496;964.0502;;;;
2019/10/29 12:04:09;;;;;;;20.8;18.6;;;;;;;7.93;100;964.1114;;;;
2019/10/29 12:06:34;;;;;;;22.9;20.6;;;;;;;7.76;100;964.062;;;;
2019/10/29 12:09:00;;;;;;;21.3;19.2;;;;;;;7.87;100;964.1027;;;;
2019/10/29 12:11:25;;;;;;;22.5;20.3;;;;;;;7.95;100;964.0914;;;;
2019/10/29 12:13:50;;;;;;;21.4;19.2;;;;;;;7.97;100;964.068;;;;
2019/10/29 12:16:15;;;;;;;19.2;17.2;;;;;;;7.89;99.76074;964.1047;;;;
2019/10/29 12:18:40;;;;;;;19;17;;;;;;;8.02;100;964.1494;;;;
2019/10/29 12:21:05;;;;;;;20.1;17;;;;;;;8.11;100;964.1177;;;;
2019/10/29 12:23:30;;;;;;;20.8;17.6;;;;;;;7.98;100;964.1674;;;;
2019/10/29 12:25:55;;;;;;;18.7;16.5;;;;;;;8.04;99.17578;964.1183;;;;
2019/10/29 12:30:06;;;;;;;18.9;17;;;;;;;8.01;100;964.144;;;;
2019/10/29 12:32:31;;;;;;;18;16.2;;;;;;;8.11;99.88184;964.1163;;;;
2019/10/29 12:34:56;;;;;;;19.5;16.5;;;;;;;8.15;97.33789;964.1599;;;;
2019/10/29 12:37:22;;;;;;;16.3;14.7;;;;;;;8.28;96.78418;964.157;;;;
2019/10/29 12:39:47;;;;;;;17.7;15.9;;;;;;;8.13;97.26465;964.1102;;;;
2019/10/29 12:42:12;;;;;;;16.8;15.1;;;;;;;8.19;98.52441;964.1358;;;;
2019/10/29 12:44:37;;;;;;;16.7;14.9;;;;;;;8.29;99.47656;964.1674;;;;
2019/10/29 12:47:02;;;;;;;17;14.8;;;;;;;8.2;96.91504;964.1803;;;;
2019/10/29 12:49:27;;;;;;;17.5;15;;;;;;;8.15;97.62402;964.2181;;;;
2019/10/29 12:51:52;;;;;;;17.6;15.2;;;;;;;8.05;97.9082;964.1818;;;;
2019/10/29 12:54:17;;;;;;;17.6;15.8;;;;;;;8;99.77637;964.2405;;;;
2019/10/29 12:56:42;;;;;;;16.9;15.2;;;;;;;8.23;98.41113;964.2845;;;;
2019/10/29 12:59:07;;;;;;;14.4;12.8;;;;;;;8.28;94.63184;964.3096;;;;
2019/10/29 13:01:32;;;;;;;15.6;13.5;;;;;;;8.2;94.42871;964.3101;;;;
2019/10/29 13:03:57;;;;;;;14.9;13.4;;;;;;;8.19;95.15918;964.2886;;;;
2019/10/29 13:06:23;;;;;;;15.1;13.5;;;;;;;8.23;94.98633;964.2958;;;;
2019/10/29 13:08:48;;;;;;;16.2;14.5;;;;;;;8.18;96.22363;964.3444;;;;
2019/10/29 13:11:13;;;;;;;15.7;14.1;;;;;;;8.16;96.36719;964.3921;;;;
2019/10/29 13:13:38;;;;;;;15.7;14.1;;;;;;;8.22;97.1709;964.5089;;;;
2019/10/29 13:16:03;;;;;;;16.9;15.2;;;;;;;8.14;96.01953;964.489;;;;
2019/10/29 13:18:28;;;;;;;16;14.4;;;;;;;8.29;95.59375;964.5577;;;;
2019/10/29 13:20:53;;;;;;;16.7;15;;;;;;;8.17;95.52148;964.5176;;;;
2019/10/29 13:23:18;;;;;;;16.5;14.8;;;;;;;8.09;95.72363;964.5497;;;;
2019/10/29 13:25:43;;;;;;;16.8;15.1;;;;;;;8.08;95.73242;964.6014;;;;
2019/10/29 13:28:08;;;;;;;17.3;15.6;;;;;;;8.13;97.80469;964.6225;;;;
2019/10/29 13:30:33;;;;;;;20.2;18.1;;;;;;;8.27;100;964.725;;;;
2019/10/29 13:32:59;;;;;;;17;15.2;;;;;;;8.2;97.62402;964.7219;;;;
2019/10/29 13:35:24;;;;;;;15.9;14.3;;;;;;;8.18;97.17383;964.712;;;;
2019/10/29 13:37:49;;;;;;;15.6;13.9;;;;;;;8.15;96.46582;964.6945;;;;
2019/10/29 13:40:14;;;;;;;15;12.1;;;;;;;8.37;93.83691;964.6975;;;;
2019/10/29 13:42:39;;;;;;;14.4;12.2;;;;;;;8.33;93.3252;964.6898;;;;
2019/10/29 13:45:04;;;;;;;14.6;13.1;;;;;;;8.23;94.58789;964.697;;;;
2019/10/29 13:47:29;;;;;;;13.6;12.2;;;;;;;8.31;94.37207;964.6767;;;;
2019/10/29 13:49:54;;;;;;;13;11.6;;;;;;;8.45;93.00879;964.6782;;;;
2019/10/29 13:52:19;;;;;;;16.8;13.5;;;;;;;8.25;93.3418;964.6543;;;;
2019/10/29 13:54:44;;;;;;;14.6;12.7;;;;;;;8.44;94.65625;964.6334;;;;
2019/10/29 13:57:09;;;;;;;16.5;13.4;;;;;;;8.39;94.34863;964.6786;;;;
2019/10/29 13:59:34;;;;;;;14.7;13.1;;;;;;;8.39;93.95508;964.7214;;;;
2019/10/29 14:01:59;;;;;;;15.3;13.2;;;;;;;8.4;95.73438;964.799;;;;
2019/10/29 14:04:25;;;;;;;15.7;13.3;;;;;;;8.17;94.24023;964.7676;;;;
2019/10/29 14:06:50;;;;;;;14.1;12.4;;;;;;;8.18;94.25293;964.7752;;;;
2019/10/29 14:09:15;;;;;;;15.5;12.7;;;;;;;8.18;92.97363;964.8045;;;;
2019/10/29 14:11:40;;;;;;;15.5;13.2;;;;;;;8.05;94.55762;964.8397;;;;
2019/10/29 14:14:05;;;;;;;14.3;12.2;;;;;;;8.09;95.11719;964.8663;;;;
2019/10/29 14:16:30;;;;;;;17.1;13.1;;;;;;;8.23;94.95215;964.9356;;;;
2019/10/29 14:18:56;;;;;;;16;12;;;;;;;8.15;93.52637;964.957;;;;
2019/10/29 14:21:21;;;;;;;13.2;11.2;;;;;;;8.15;91.34082;964.9447;;;;
2019/10/29 14:23:46;;;;;;;15.1;11.6;;;;;;;8.11;93.15234;965.0181;;;;
2019/10/29 14:26:11;;;;;;;16.2;11.8;;;;;;;8.26;94.15625;965.0551;;;;
2019/10/29 14:28:36;;;;;;;15;12.9;;;;;;;8.22;93.92969;965.0867;;;;
2019/10/29 14:31:01;;;;;;;14.3;11.9;;;;;;;8.11;93.62207;965.0684;;;;
2019/10/29 14:33:26;;;;;;;15.1;13.5;;;;;;;8.21;94.04199;965.0556;;;;
2019/10/29 14:36:13;;;;;;;15.8;14.1;;;;;;;8.16;93.68848;965.0886;;;;
2019/10/29 14:38:17;;;;;;;16.8;15.1;;;;;;;8.08;95.67383;965.0793;;;;
2019/10/29 14:40:42;;;;;;;17.6;15.5;;;;;;;8.03;95.10254;965.0401;;;;
2019/10/29 14:43:07;;;;;;;17.4;15.7;;;;;;;8.01;96.60938;965.0458;;;;
2019/10/29 14:45:32;;;;;;;17.3;15.5;;;;;;;8.09;95.79004;965.0732;;;;
2019/10/29 14:47:57;;;;;;;17.3;15.5;;;;;;;7.99;95.17285;965.0175;;;;
2019/10/29 14:50:22;;;;;;;18.9;15.2;;;;;;;7.89;96.68359;965.0331;;;;
2019/10/29 14:52:48;;;;;;;17.4;15.4;;;;;;;8.06;96.50488;965.0364;;;;
2019/10/29 14:55:13;;;;;;;19;17;;;;;;;8.04;96.64746;965.1019;;;;
2019/10/29 14:57:38;;;;;;;19.4;16.4;;;;;;;7.85;95.18945;965.1072;;;;